HE18 weather

Habata Airport
Matruh Governorate, Egypt

Public forecast

Using degrees Celsius for public forecast. Weather courtesy of forecast.io.

METAR (pilot weather report)

Closest report is Mersa Matruh Airport, 91.8 nm (170.0 km) E. Retrieved 2019/04/21 05:00 UTC (1 hour ago):

HEMM 210500Z 34013KT 9999 FEW020 15/07 Q1021 NOSIG

TAF (pilot weather forecast)

Forecast is more than 12 hours old.

Closest forecast is Gamal Abdel Nasser Airport, 91.1 nm (168.8 km) WNW. Retrieved 2012/09/08 18:00 UTC (7 years ago):

TAF HLLQ 081700Z 0818/0918 34008G18KT 9999 SCT020= TAF HLGN 081700Z 0818/0918 36012KT 9999 SCT022